ΕΜΥ, Εθνική Μετεωρολογική Υπηρεσία - Δελτία Καιρού, Προγνώσεις

ΑΕΡΟΝΑΥΤΙΛΙΑ

GREEK AIRPORTS CODES

LGTG 270820Z 28008KT 4000 -RA SCT010 FEW018TCU BKN020 OVC070 07/07 Q1006=

EUROPEAN AIRPORTS CODES

LFPO 270830Z 02015KT 9999 SCT027 OVC033 05/01 Q1024 NOSIG=